KRRL Airport (Merrill Muni) Information

FAA: RRL - ICAO: KRRL

KRRL Airport Location

State Wisconsin
County Lincoln
City Merrill
KRRL Airport is 1 miles northwest of Merrill, WI.
Latitude 45-11-56.1000N
Longitude 089-42-46.3000W
Elevation 1,318ft

KRRL Airport METARs

METAR KRRL 262355Z AUTO 15006KT 10SM OVC075 M04/M13 A2995 RMK AO2 T10431135 11032 21053 TSNO
Altimeter 29.95"
Temperature -4.3°C (24.3°F)
Wind 150° at 6KT
Clouds overcast at 7,500ft
Visibility 10.0mi
Time observed: 2021-11-26T23:55:00Z

KRRL Airport Details

Status Operational
Activation February 1938
Ownership Public
Usage Public
Chart GREEN BAY
ATC on-site No
Beacon schedule sunset-sunrise
Beacon color clear green

KRRL Airport Contacts

Owner CITY OF MERRILL
Owner address N2241 AIRPORT RD, MERRILL, WI 54452
Owner phone 715-536-2024
Manager RYAN UNZICKER, FAC. MGR
Manager address 202 SOUTH PARK ST, MADISON, WI 53715
Manager phone (608) 417-6376

KRRL Airport (Merrill Muni) Radio Frequencies

KRRL (Airport) Radio Frequencies

UNICOM 122.8
Common traffic advisory frequency (CTAF) 122.8